Latest Weather Observations for Red Rocks Point

IDW60801

Issued at 7:05 am WST Friday 31 October 2014 (issued every 30 minutes, with the page automatically refreshed every 10 minutes)

About weather observations | Map of weather stations | Latest weather observations for WA | Other Formats
Station Details ID: 011053 Name: RED ROCKS POINT Lat: -32.20 Lon: 127.53 Height: 3.1 m
Data from the previous 72 hours. | See also: Recent months for locations in Western Australia
Date/Time
WST
Temp
°C
App
Temp
°C
Dew
Point
Rel
Hum
%
Delta-T
°C
Wind Press
QNH
hPa
Press
MSL
hPa
Rain
since 9 am
mm
Dir
 
Spd
km/h
Gust
km/h
Spd
kts
Gust
kts
31/07:00am 17.8 13.3 15.4 86 1.4 S 33 41 18 22 1007.9 - 3.0
31/06:30am 17.7 13.2 15.5 87 1.3 S 33 41 18 22 1007.7 - 3.0
31/06:00am 17.6 13.5 15.9 90 1.0 S 32 39 17 21 1007.2 1007.2 3.0
31/05:30am 17.3 13.4 15.6 90 1.0 S 30 35 16 19 1007.1 - 3.0
31/05:00am 17.3 16.1 16.2 93 0.7 S 17 24 9 13 1007.1 - 3.0
31/04:30am 17.1 17.4 16.0 93 0.6 SSW 9 13 5 7 1007.2 - 3.0
31/04:00am 17.1 15.3 16.0 93 0.6 SSW 20 33 11 18 1007.2 - 3.0
31/03:30am 17.5 15.0 16.2 92 0.8 SSE 24 30 13 16 1006.2 - 3.0
31/03:00am 17.6 16.0 16.5 93 0.7 SSE 20 26 11 14 1006.3 1006.3 2.8
31/02:30am 17.3 16.5 16.0 92 0.8 SW 15 26 8 14 1007.9 - 2.6
31/02:16am 17.5 15.9 16.0 91 0.9 WSW 19 26 10 14 1008.3 - 2.0
31/02:00am 17.7 16.1 16.4 92 0.8 S 20 22 11 12 1006.2 - 2.0
31/01:30am 17.7 16.6 16.4 92 0.8 S 17 20 9 11 1006.4 - 2.0
31/01:00am 17.8 15.7 16.3 91 0.9 S 22 26 12 14 1006.0 - 2.0
31/12:30am 17.8 17.7 16.0 89 1.1 SSE 11 15 6 8 1006.3 - 2.0
31/12:00am 17.9 17.5 16.2 90 1.0 SE 13 15 7 8 1006.6 1006.6 1.6
 
Date/Time
WST
Temp
°C
App
Temp
°C
Dew
Point
Rel
Hum
%
Delta-T
°C
Wind Press
QNH
hPa
Press
MSL
hPa
Rain
since 9 am
mm
Dir
 
Spd
km/h
Gust
km/h
Spd
kts
Gust
kts
30/11:30pm 17.9 17.9 16.2 90 1.0 SE 11 13 6 7 1007.0 - 1.6
30/11:00pm 17.8 16.7 16.3 91 0.9 S 17 20 9 11 1007.8 - 1.6
30/10:30pm 17.9 15.2 16.6 92 0.8 S 26 32 14 17 1007.6 - 1.6
30/10:00pm 18.0 14.9 16.5 91 0.9 S 28 32 15 17 1007.8 - 1.6
30/09:30pm 18.4 16.2 16.9 91 0.9 SSE 24 30 13 16 1007.9 - 1.6
30/09:00pm 18.4 15.1 16.9 91 0.9 SSE 30 33 16 18 1007.8 1007.8 1.6
30/08:30pm 18.3 16.8 16.8 91 0.9 SE 20 24 11 13 1008.4 - 1.6
30/08:00pm 17.7 17.3 16.2 91 0.9 ENE 13 17 7 9 1009.1 - 1.6
30/07:30pm 17.8 14.5 16.1 90 1.0 N 28 37 15 20 1010.6 - 1.6
30/07:00pm 18.2 16.7 16.2 88 1.2 S 19 28 10 15 1009.9 - 1.4
30/06:30pm 18.8 17.5 15.7 82 1.8 WSW 17 24 9 13 1010.8 - 0.0
30/06:20pm 18.8 17.2 16.0 84 1.7 W 19 24 10 13 1011.0 - 0.0
30/06:00pm 18.7 18.0 16.3 86 1.4 SE 15 20 8 11 1008.9 1008.9 0.0
30/05:30pm 18.9 17.5 16.5 86 1.4 SE 19 22 10 12 1008.6 - 0.0
30/05:00pm 18.9 17.2 16.3 85 1.6 SSE 20 24 11 13 1008.7 - 0.0
30/04:30pm 19.3 16.9 16.5 84 1.7 S 24 28 13 15 1008.3 - 0.0
30/04:00pm 20.2 17.9 16.6 80 2.2 S 24 32 13 17 1008.1 - 0.0
30/03:30pm 20.7 17.5 16.3 76 2.6 SSW 28 35 15 19 1008.1 - 0.0
30/03:00pm 21.5 18.4 16.5 73 3.0 SSW 28 37 15 20 1008.1 1008.1 0.0
30/02:30pm 21.0 18.4 16.0 73 3.0 SSW 24 32 13 17 1008.0 - 0.0
30/02:00pm 22.2 19.8 16.5 70 3.5 SSW 24 32 13 17 1008.2 - 0.0
30/01:30pm 22.7 20.9 16.9 70 3.6 SW 22 32 12 17 1008.5 - 0.0
30/01:00pm 23.0 20.6 16.5 67 4.0 SW 24 32 13 17 1008.8 - 0.0
30/12:30pm 25.3 22.6 16.7 59 5.3 SW 26 37 14 20 1009.3 - 0.0
30/12:17pm 24.8 21.5 16.0 58 5.4 WSW 28 35 15 19 1009.3 - 0.0
30/12:00pm 25.5 27.1 14.9 52 6.4 CALM 0 0 0 0 1009.1 1009.1 0.0
30/11:30am 23.2 25.7 17.2 69 3.7 CALM 0 0 0 0 1009.1 - 0.0
30/11:00am 24.1 25.8 15.3 58 5.3 CALM 0 0 0 0 1009.4 - 0.0
30/10:30am 24.2 24.8 16.7 63 4.6 SSE 9 15 5 8 1009.6 - 0.0
30/10:11am 25.1 24.8 15.4 55 5.9 S 11 17 6 9 1009.9 - 0.0
30/10:00am 30.3 28.0 7.5 24 12.4 W 9 15 5 8 1010.1 - 0.0
30/09:30am 30.6 26.9 6.5 22 12.9 NW 15 20 8 11 1010.5 - 0.0
30/09:00am 30.0 26.1 5.3 21 12.9 N 15 26 8 14 1010.8 1010.8 0.0
30/08:30am 27.3 22.8 4.4 23 11.6 N 17 24 9 13 1010.8 - 0.0
30/08:00am 26.1 21.0 4.0 24 11.0 N 20 28 11 15 1011.2 - 0.0
30/07:30am 24.5 19.9 3.8 26 10.2 N 17 26 9 14 1011.7 - 0.0
30/07:00am 23.2 18.1 3.2 27 9.6 N 19 26 10 14 1011.6 - 0.0
30/06:30am 22.7 18.8 3.3 28 9.3 N 13 20 7 11 1011.9 - 0.0
30/06:00am 21.4 17.9 3.6 31 8.5 N 11 17 6 9 1011.8 1011.8 0.0
30/05:30am 20.9 18.7 3.6 32 8.3 NNW 4 9 2 5 1011.9 - 0.0
30/05:00am 20.8 16.9 3.5 32 8.2 N 13 19 7 10 1011.2 - 0.0
30/04:30am 20.6 16.3 3.3 32 8.2 N 15 20 8 11 1010.9 - 0.0
30/04:00am 20.6 15.9 3.3 32 8.2 N 17 26 9 14 1010.6 - 0.0
30/03:30am 20.1 15.4 3.3 33 7.9 N 17 20 9 11 1011.1 - 0.0
30/03:00am 19.6 15.0 3.7 35 7.5 N 17 24 9 13 1010.9 1010.9 0.0
30/02:30am 19.3 14.4 3.9 36 7.3 N 19 24 10 13 1011.2 - 0.0
30/02:00am 19.7 15.2 4.2 36 7.4 N 17 28 9 15 1011.3 - 0.0
30/01:30am 19.4 15.3 4.3 37 7.2 NNE 15 24 8 13 1011.0 - 0.0
30/01:00am 19.6 15.5 4.1 36 7.4 NNE 15 22 8 12 1011.6 - 0.0
30/12:30am 20.0 15.6 4.5 36 7.5 NE 17 20 9 11 1011.8 - 0.0
30/12:00am 20.3 15.5 5.5 38 7.3 NE 20 30 11 16 1012.0 1012.0 0.0
 
Date/Time
WST
Temp
°C
App
Temp
°C
Dew
Point
Rel
Hum
%
Delta-T
°C
Wind Press
QNH
hPa
Press
MSL
hPa
Rain
since 9 am
mm
Dir
 
Spd
km/h
Gust
km/h
Spd
kts
Gust
kts
29/11:30pm 20.5 15.9 6.4 40 7.1 NE 20 30 11 16 1012.4 - 0.0
29/11:00pm 20.4 15.5 7.1 42 6.8 NE 22 28 12 15 1012.5 - 0.0
29/10:30pm 20.2 15.5 7.9 45 6.3 NE 22 30 12 16 1013.1 - 0.0
29/10:00pm 19.9 15.3 9.5 51 5.5 NE 24 30 13 16 1013.3 - 0.0
29/09:30pm 19.4 15.7 9.6 53 5.2 NE 19 26 10 14 1013.7 - 0.0
29/09:00pm 19.2 14.9 7.9 48 5.8 NE 20 26 11 14 1014.1 1014.1 0.0
29/08:30pm 19.8 14.8 8.2 47 6.0 NE 24 30 13 16 1014.0 - 0.0
29/08:00pm 20.5 16.8 12.7 61 4.4 ENE 24 32 13 17 1013.7 - 0.0
29/07:30pm 20.5 16.5 11.7 57 4.9 ENE 24 28 13 15 1013.6 - 0.0
29/07:00pm 20.7 16.0 14.8 69 3.5 ENE 33 39 18 21 1013.6 - 0.0
29/06:30pm 20.8 15.8 15.1 70 3.4 ENE 35 41 19 22 1013.4 - 0.0
29/06:00pm 20.8 15.9 15.4 71 3.2 ENE 35 41 19 22 1013.1 1013.1 0.0
29/05:30pm 20.7 15.5 14.6 68 3.6 ENE 35 43 19 23 1013.1 - 0.0
29/05:00pm 21.1 16.2 15.4 70 3.4 ENE 35 41 19 22 1013.0 - 0.0
29/04:30pm 20.9 16.3 15.2 70 3.4 ENE 33 39 18 21 1013.0 - 0.0
29/04:00pm 21.2 16.7 14.8 67 3.8 E 32 37 17 20 1012.9 - 0.0
29/03:30pm 21.1 16.8 14.5 66 3.9 E 30 35 16 19 1013.2 - 0.0
29/03:00pm 21.5 17.5 15.3 68 3.7 E 30 33 16 18 1013.2 1013.2 0.0
29/02:30pm 21.9 17.3 14.5 63 4.3 E 32 35 17 19 1013.3 - 0.0
29/02:00pm 20.9 17.0 14.5 67 3.7 E 28 32 15 17 1013.5 - 0.0
29/01:30pm 21.6 18.1 14.5 64 4.2 E 26 32 14 17 1013.8 - 0.0
29/01:00pm 22.3 17.8 13.9 59 4.9 E 30 35 16 19 1014.2 - 0.0
29/12:30pm 21.7 18.2 14.6 64 4.2 E 26 30 14 16 1014.7 - 0.0
29/12:00pm 21.7 18.6 14.6 64 4.2 E 24 28 13 15 1015.0 1015.0 0.0
29/11:30am 21.3 19.2 15.2 68 3.6 E 20 26 11 14 1015.4 - 0.0
29/11:00am 22.2 19.6 16.0 68 3.7 E 24 28 13 15 1015.3 - 0.0
29/10:30am 21.8 18.9 15.2 66 3.9 E 24 28 13 15 1015.9 - 0.0
29/10:00am 21.8 18.2 14.2 62 4.4 E 26 30 14 16 1016.0 - 0.0
29/09:30am 21.0 17.9 13.4 62 4.4 E 22 26 12 14 1016.3 - 0.0
29/09:00am 21.8 19.0 13.2 58 4.9 E 20 24 11 13 1016.6 1016.6 0.0
29/08:30am 22.0 19.8 12.0 53 5.6 ENE 15 20 8 11 1017.2 - 0.0
29/08:00am 19.9 17.0 11.1 57 4.8 NNE 17 22 9 12 1017.5 - 0.0
29/07:30am 17.7 15.7 11.5 67 3.4 NNE 13 19 7 10 1017.7 - 0.0
29/07:00am 15.9 13.8 11.1 73 2.6 NNE 13 17 7 9 1017.8 - 0.0
29/06:30am 14.9 12.5 11.3 79 1.9 NNE 15 22 8 12 1017.7 - 0.0
29/06:00am 14.0 12.3 11.3 84 1.4 NNE 11 15 6 8 1017.8 1017.8 0.0
29/05:30am 13.5 11.4 11.2 86 1.2 NNE 13 17 7 9 1017.6 - 0.0
29/05:00am 13.3 10.9 11.4 88 1.0 NE 15 20 8 11 1017.5 - 0.0
29/04:30am 12.5 10.3 10.9 90 0.8 NE 13 17 7 9 1017.2 - 0.0
29/04:00am 12.7 10.6 11.1 90 0.8 NNE 13 17 7 9 1017.2 - 0.0
29/03:30am 12.9 10.4 11.1 89 0.9 NNE 15 20 8 11 1017.2 - 0.0
29/03:00am 13.4 10.7 11.6 89 1.0 NNE 17 22 9 12 1017.1 1017.1 0.0
29/02:30am 13.7 10.4 11.7 88 1.1 NNE 20 28 11 15 1017.1 - 0.0
29/02:00am 13.6 10.5 11.7 88 1.0 NNE 19 24 10 13 1017.3 - 0.0
29/01:30am 13.6 11.3 11.7 88 1.0 NNE 15 20 8 11 1017.4 - 0.0
29/01:00am 14.0 11.7 11.7 86 1.2 NE 15 17 8 9 1017.5 - 0.0
29/12:30am 14.7 11.8 12.2 85 1.4 NE 19 24 10 13 1017.3 - 0.0
29/12:00am 14.9 12.4 12.4 85 1.4 NE 17 20 9 11 1017.6 - 0.0
 
Date/Time
WST
Temp
°C
App
Temp
°C
Dew
Point
Rel
Hum
%
Delta-T
°C
Wind Press
QNH
hPa
Press
MSL
hPa
Rain
since 9 am
mm
Dir
 
Spd
km/h
Gust
km/h
Spd
kts
Gust
kts
28/11:30pm 15.4 12.5 12.3 82 1.7 NE 19 22 10 12 1018.1 - 0.0
28/11:00pm 16.8 12.4 12.9 78 2.2 ENE 28 39 15 21 1018.4 - 0.0
28/10:30pm 17.5 12.5 14.0 80 2.0 ENE 33 39 18 21 1018.8 - 0.0
28/10:00pm 17.5 12.7 14.0 80 2.0 ENE 32 39 17 21 1019.0 - 0.0
28/09:30pm 17.5 12.7 14.0 80 2.0 E 32 37 17 20 1019.1 - 0.0
28/09:00pm 17.5 12.6 13.8 79 2.1 E 32 35 17 19 1019.5 1019.5 0.0
28/08:30pm 17.5 13.1 14.0 80 2.0 E 30 35 16 19 1019.6 - 0.0
28/08:00pm 17.5 13.1 14.2 81 1.9 E 30 35 16 19 1019.5 - 0.0
28/07:30pm 17.5 12.6 13.8 79 2.1 E 32 35 17 19 1019.6 - 0.0
28/07:00pm 17.4 12.5 13.7 79 2.1 E 32 35 17 19 1019.4 - 0.0
28/06:30pm 17.5 12.4 13.8 79 2.1 E 33 37 18 20 1019.1 - 0.0
28/06:00pm 17.4 12.5 13.7 79 2.1 E 32 37 17 20 1019.0 1019.0 0.0
28/05:30pm 17.5 12.6 13.6 78 2.2 E 32 37 17 20 1018.8 - 0.0
28/05:00pm 17.7 12.7 13.4 76 2.4 E 32 37 17 20 1018.9 - 0.0
28/04:30pm 18.0 13.1 13.7 76 2.4 E 32 37 17 20 1018.9 - 0.0
28/04:00pm 18.2 13.2 13.3 73 2.8 E 32 37 17 20 1018.8 - 0.0
28/03:30pm 18.3 13.1 13.4 73 2.8 E 33 39 18 21 1019.0 - 0.0
28/03:00pm 18.6 13.5 13.2 71 3.0 E 32 37 17 20 1019.1 1019.1 0.0
28/02:30pm 18.9 13.9 13.5 71 3.1 ESE 32 35 17 19 1019.3 - 0.0
28/02:00pm 19.3 14.7 13.5 69 3.3 ESE 30 33 16 18 1019.4 - 0.0
28/01:30pm 19.4 15.2 13.6 69 3.3 ESE 28 32 15 17 1019.8 - 0.0
28/01:00pm 19.7 15.3 12.9 65 3.8 ESE 28 33 15 18 1020.1 - 0.0
28/12:30pm 19.5 15.3 13.4 68 3.5 ESE 28 32 15 17 1020.4 - 0.0
28/12:00pm 19.3 14.2 13.0 67 3.5 ESE 32 35 17 19 1020.6 1020.6 0.0
28/11:30am 19.3 14.6 13.2 68 3.5 SE 30 33 16 18 1020.7 - 0.0
28/11:00am 19.5 14.9 13.4 68 3.5 SE 30 32 16 17 1021.1 - 0.0
28/10:30am 19.5 15.8 12.7 65 3.8 ESE 24 28 13 15 1021.6 - 0.0
28/10:00am 19.7 16.7 12.5 63 4.0 ESE 20 24 11 13 1021.9 - 0.0
28/09:30am 19.9 17.0 12.2 61 4.3 ESE 19 22 10 12 1022.1 - 0.0
28/09:00am 19.3 16.7 12.1 63 4.0 ESE 17 19 9 10 1022.4 1022.4 0.0
28/08:30am 19.1 16.9 12.1 64 3.9 E 15 20 8 11 1022.4 - 0.0
28/08:00am 18.3 16.0 11.8 66 3.6 E 15 19 8 10 1022.4 - 0.0
28/07:30am 18.0 16.7 11.3 65 3.6 E 9 13 5 7 1022.4 - 0.0

Other Formats:

Comma delimited format used in spreadsheet applications
http://www.bom.gov.au/fwo/IDW60801/IDW60801.94644.axf

JavaScript Object Notation format (JSON) in row-major order
http://www.bom.gov.au/fwo/IDW60801/IDW60801.94644.json